createdAt,value
2023-11-15T00:01:44.950Z,1.30
2023-11-15T00:04:13.962Z,1.40
2023-11-15T00:06:42.786Z,1.27
2023-11-15T00:09:11.545Z,1.23
2023-11-15T00:11:40.511Z,1.40
2023-11-15T00:14:09.358Z,1.20
2023-11-15T00:16:38.070Z,1.50
2023-11-15T00:19:08.921Z,1.73
2023-11-15T00:21:37.697Z,2.00
2023-11-15T00:24:06.964Z,1.77
2023-11-15T00:26:44.515Z,1.75
2023-11-15T00:29:13.448Z,1.67
2023-11-15T00:31:42.189Z,1.60
2023-11-15T00:34:12.649Z,1.80
2023-11-15T00:36:46.011Z,1.63
2023-11-15T00:39:14.668Z,1.55
2023-11-15T00:41:43.289Z,1.50
2023-11-15T00:44:12.246Z,1.50
2023-11-15T00:46:40.949Z,1.33
2023-11-15T00:49:10.022Z,1.30
2023-11-15T00:51:40.253Z,1.23
2023-11-15T00:54:08.918Z,1.48
2023-11-15T00:56:37.638Z,1.20
2023-11-15T00:59:06.751Z,1.50
2023-11-15T01:01:37.711Z,1.70
2023-11-15T01:04:07.321Z,1.60
2023-11-15T01:06:36.059Z,1.80
2023-11-15T01:09:09.285Z,1.80
2023-11-15T01:11:39.683Z,2.08
2023-11-15T01:14:08.394Z,1.80
2023-11-15T01:16:37.139Z,2.00
2023-11-15T01:19:05.956Z,1.90
2023-11-15T01:21:34.744Z,2.10
2023-11-15T01:24:04.252Z,1.80
2023-11-15T01:26:34.378Z,1.90
2023-11-15T01:29:03.501Z,2.13
2023-11-15T01:31:32.473Z,2.10
2023-11-15T01:34:01.247Z,1.90
2023-11-15T01:36:30.194Z,1.70
2023-11-15T01:38:58.825Z,1.98
2023-11-15T01:41:27.516Z,2.33
2023-11-15T01:43:57.604Z,1.95
2023-11-15T01:46:26.426Z,1.80
2023-11-15T01:48:55.824Z,1.70
2023-11-15T01:51:24.723Z,1.77
2023-11-15T01:53:53.478Z,1.70
2023-11-15T01:56:22.266Z,1.80
2023-11-15T01:58:52.026Z,1.90
2023-11-15T02:01:22.583Z,1.95
2023-11-15T02:03:51.458Z,2.35
2023-11-15T02:06:20.646Z,2.10
2023-11-15T02:08:49.609Z,2.50
2023-11-15T02:11:18.397Z,2.33
2023-11-15T02:13:47.552Z,2.10
2023-11-15T02:16:16.301Z,2.47
2023-11-15T02:18:46.902Z,2.28
2023-11-15T02:21:15.559Z,2.22
2023-11-15T02:23:45.851Z,2.20
2023-11-15T02:26:15.198Z,2.40
2023-11-15T02:28:44.360Z,2.15
2023-11-15T02:31:13.377Z,2.20
2023-11-15T02:33:42.251Z,2.70
2023-11-15T02:36:11.321Z,2.38
2023-11-15T02:38:41.066Z,2.30
2023-11-15T02:41:11.264Z,2.15
2023-11-15T02:43:40.021Z,2.22
2023-11-15T02:46:08.984Z,2.22
2023-11-15T02:48:37.720Z,2.80
2023-11-15T02:51:07.440Z,2.70
2023-11-15T02:53:36.078Z,2.50
2023-11-15T02:56:05.033Z,2.42
2023-11-15T02:58:35.024Z,2.65
2023-11-15T03:01:03.765Z,2.58
2023-11-15T03:03:33.048Z,2.30
2023-11-15T03:06:02.823Z,2.40
2023-11-15T03:08:31.813Z,2.25
2023-11-15T03:11:00.683Z,2.45
2023-11-15T03:13:29.389Z,2.88
2023-11-15T03:15:59.504Z,2.40
2023-11-15T03:18:29.352Z,2.38
2023-11-15T03:20:58.079Z,2.42
2023-11-15T03:23:29.786Z,2.20
2023-11-15T03:25:58.540Z,2.28
2023-11-15T03:28:27.183Z,2.03
2023-11-15T03:30:55.942Z,2.50
2023-11-15T03:33:26.324Z,2.75
2023-11-15T03:35:55.328Z,2.30
2023-11-15T03:38:24.020Z,2.30
2023-11-15T03:40:53.100Z,2.30
2023-11-15T03:43:21.696Z,2.50
2023-11-15T03:45:50.529Z,2.25
2023-11-15T03:48:19.640Z,2.22
2023-11-15T03:50:50.274Z,2.22
2023-11-15T03:53:19.331Z,2.13
2023-11-15T03:55:48.169Z,2.30
2023-11-15T03:58:16.941Z,2.58
2023-11-15T04:00:45.541Z,2.70
2023-11-15T04:03:14.647Z,2.17
2023-11-15T04:05:44.088Z,2.70
2023-11-15T04:08:14.365Z,2.47
2023-11-15T04:10:43.042Z,2.15
2023-11-15T04:13:11.877Z,2.30
2023-11-15T04:15:40.650Z,2.35
2023-11-15T04:18:09.622Z,2.17
2023-11-15T04:20:38.340Z,2.50
2023-11-15T04:23:07.382Z,2.83
2023-11-15T04:25:37.505Z,2.33
2023-11-15T04:28:07.137Z,2.80
2023-11-15T04:30:36.004Z,2.47
2023-11-15T04:33:05.110Z,2.50
2023-11-15T04:35:34.138Z,2.30
2023-11-15T04:38:04.600Z,3.00
2023-11-15T04:40:33.385Z,2.72
2023-11-15T04:43:03.489Z,2.78
2023-11-15T04:45:32.268Z,2.80
2023-11-15T04:48:00.984Z,2.40
2023-11-15T04:50:30.056Z,2.47
2023-11-15T04:52:59.326Z,2.75
2023-11-15T04:55:27.953Z,2.90
2023-11-15T04:57:57.277Z,2.47
2023-11-15T05:00:27.291Z,2.75
2023-11-15T05:02:56.266Z,2.70
2023-11-15T05:05:25.042Z,2.92
2023-11-15T05:07:55.087Z,2.75
2023-11-15T05:10:26.069Z,2.97
2023-11-15T05:12:54.758Z,2.70
2023-11-15T05:15:23.407Z,2.67
2023-11-15T05:17:53.938Z,2.60
2023-11-15T05:20:22.827Z,2.90
2023-11-15T05:22:51.722Z,2.72
2023-11-15T05:25:22.378Z,2.67
2023-11-15T05:27:51.092Z,3.08
2023-11-15T05:30:19.868Z,3.22
2023-11-15T05:32:48.926Z,2.60
2023-11-15T05:35:19.262Z,2.67
2023-11-15T05:37:48.037Z,2.60
2023-11-15T05:40:16.866Z,2.80
2023-11-15T05:42:45.997Z,3.05
2023-11-15T05:45:16.603Z,3.10
2023-11-15T05:47:45.502Z,3.25
2023-11-15T05:50:16.832Z,2.80
2023-11-15T05:52:47.146Z,2.95
2023-11-15T05:55:16.030Z,2.97
2023-11-15T05:57:45.852Z,2.75
2023-11-15T06:00:19.929Z,2.90
2023-11-15T06:02:49.748Z,2.67
2023-11-15T06:05:18.554Z,3.00
2023-11-15T06:07:48.926Z,3.03
2023-11-15T06:10:18.814Z,3.05
2023-11-15T06:12:50.169Z,3.13
2023-11-15T06:15:19.692Z,3.15
2023-11-15T06:17:48.394Z,2.80
2023-11-15T06:20:17.317Z,3.17
2023-11-15T06:22:46.687Z,2.72
2023-11-15T06:25:19.856Z,2.85
2023-11-15T06:27:49.221Z,3.05
2023-11-15T06:30:19.975Z,2.70
2023-11-15T06:32:49.723Z,3.20
2023-11-15T06:35:20.574Z,3.40
2023-11-15T06:37:49.960Z,3.10
2023-11-15T06:40:20.752Z,3.38
2023-11-15T06:42:49.370Z,3.20
2023-11-15T06:45:18.084Z,3.10
2023-11-15T06:47:47.139Z,3.15
2023-11-15T06:50:17.501Z,2.70
2023-11-15T06:52:46.366Z,3.30
2023-11-15T06:55:15.044Z,3.30
2023-11-15T06:57:45.698Z,3.42
2023-11-15T07:00:15.652Z,3.53
2023-11-15T07:02:44.766Z,3.65
2023-11-15T07:05:14.511Z,3.65
2023-11-15T07:07:43.232Z,3.80
2023-11-15T07:10:16.561Z,4.03
2023-11-15T07:12:47.905Z,3.95
2023-11-15T07:15:17.767Z,3.80
2023-11-15T07:17:46.483Z,3.97
2023-11-15T07:20:21.656Z,4.70
2023-11-15T07:22:50.502Z,4.05
2023-11-15T07:25:19.919Z,3.83
2023-11-15T07:27:50.988Z,4.38
2023-11-15T07:30:23.201Z,4.32
2023-11-15T07:32:52.487Z,3.97
2023-11-15T07:35:21.449Z,4.25
2023-11-15T07:37:50.101Z,4.30
2023-11-15T07:40:18.766Z,4.03
2023-11-15T07:42:47.509Z,4.22
2023-11-15T07:45:19.250Z,3.58
2023-11-15T07:47:48.146Z,3.90
2023-11-15T07:50:18.279Z,3.42
2023-11-15T07:52:47.525Z,3.92
2023-11-15T07:55:16.469Z,3.55
2023-11-15T07:57:45.296Z,3.95
2023-11-15T08:00:14.685Z,3.28
2023-11-15T08:02:45.930Z,3.67
2023-11-15T08:05:15.618Z,3.35
2023-11-15T08:07:44.232Z,3.10
2023-11-15T08:10:14.506Z,3.25
2023-11-15T08:12:43.550Z,2.97
2023-11-15T08:15:15.702Z,3.00
2023-11-15T08:17:47.456Z,2.75
2023-11-15T08:20:18.667Z,3.38
2023-11-15T08:22:48.029Z,2.95
2023-11-15T08:25:16.878Z,2.95
2023-11-15T08:27:45.924Z,3.13
2023-11-15T08:30:18.556Z,2.97
2023-11-15T08:32:50.137Z,3.75
2023-11-15T08:35:19.675Z,3.03
2023-11-15T08:37:48.323Z,3.10
2023-11-15T08:40:26.640Z,3.10
2023-11-15T08:42:58.247Z,3.30
2023-11-15T08:45:28.068Z,2.85
2023-11-15T08:47:59.585Z,2.88
2023-11-15T08:50:30.326Z,3.22
2023-11-15T08:52:59.970Z,3.20
2023-11-15T08:55:29.771Z,3.00
2023-11-15T08:57:58.638Z,3.08
2023-11-15T09:00:27.487Z,2.90
2023-11-15T09:02:57.672Z,3.05
2023-11-15T09:05:27.856Z,2.97
2023-11-15T09:07:56.581Z,2.70
2023-11-15T09:10:25.236Z,2.85
2023-11-15T09:12:56.042Z,2.75
2023-11-15T09:15:25.658Z,3.03
2023-11-15T09:17:55.076Z,2.97
2023-11-15T09:20:28.886Z,2.80
2023-11-15T09:22:59.891Z,2.78
2023-11-15T09:25:31.359Z,2.67
2023-11-15T09:28:01.579Z,2.60
2023-11-15T09:30:32.365Z,3.20
2023-11-15T09:33:06.825Z,2.50
2023-11-15T09:35:39.995Z,2.50
2023-11-15T09:38:12.304Z,2.60
2023-11-15T09:40:41.326Z,2.20
2023-11-15T09:43:11.522Z,2.28
2023-11-15T09:45:43.735Z,2.25
2023-11-15T09:48:14.159Z,2.30
2023-11-15T09:50:45.274Z,2.40
2023-11-15T09:53:17.271Z,2.03
2023-11-15T09:55:45.971Z,1.98
2023-11-15T09:58:14.589Z,2.03
2023-11-15T10:00:43.450Z,1.98
2023-11-15T10:03:12.739Z,2.00
2023-11-15T10:05:44.048Z,2.20
2023-11-15T10:08:14.207Z,2.35
2023-11-15T10:10:45.790Z,2.33
2023-11-15T10:13:18.219Z,2.47
2023-11-15T10:15:48.080Z,2.05
2023-11-15T10:18:19.508Z,2.47
2023-11-15T10:20:48.953Z,2.15
2023-11-15T10:23:32.168Z,2.30
2023-11-15T10:26:03.124Z,2.75
2023-11-15T10:28:34.143Z,2.00
2023-11-15T10:31:06.794Z,2.10
2023-11-15T10:33:39.662Z,2.47
2023-11-15T10:36:19.255Z,2.17
2023-11-15T10:38:50.098Z,2.03
2023-11-15T10:41:20.696Z,2.30
2023-11-15T10:43:50.926Z,2.20
2023-11-15T10:46:20.314Z,2.03
2023-11-15T10:48:51.112Z,1.92
2023-11-15T10:51:22.911Z,1.73
2023-11-15T10:53:51.817Z,1.73
2023-11-15T10:56:23.429Z,2.35
2023-11-15T10:58:54.210Z,1.77
2023-11-15T11:01:24.440Z,2.15
2023-11-15T11:03:56.376Z,3.28
2023-11-15T11:06:28.658Z,3.33
2023-11-15T11:09:03.505Z,2.45
2023-11-15T11:11:41.654Z,2.10
2023-11-15T11:14:16.989Z,1.80
2023-11-15T11:16:47.428Z,1.88
2023-11-15T11:19:18.820Z,2.50
2023-11-15T11:22:07.356Z,1.75
2023-11-15T11:24:37.392Z,1.73
2023-11-15T11:27:21.294Z,1.67
2023-11-15T11:30:07.599Z,1.30
2023-11-15T11:32:38.985Z,1.60
2023-11-15T11:35:36.038Z,1.60
2023-11-15T11:38:05.500Z,1.70
2023-11-15T11:40:36.620Z,1.90
2023-11-15T11:43:20.598Z,1.95
2023-11-15T11:45:51.470Z,1.77
2023-11-15T11:48:23.031Z,1.65
2023-11-15T11:50:56.365Z,1.42
2023-11-15T11:53:25.637Z,2.00
2023-11-15T11:55:56.070Z,2.30
2023-11-15T11:58:25.857Z,1.60
2023-11-15T12:01:01.352Z,1.88
2023-11-15T12:03:32.477Z,1.90
2023-11-15T12:06:02.050Z,1.92
2023-11-15T12:08:32.321Z,1.88
2023-11-15T12:11:02.519Z,2.33
2023-11-15T12:13:43.628Z,2.30
2023-11-15T12:16:19.496Z,2.00
2023-11-15T12:19:04.922Z,1.95
2023-11-15T12:21:36.374Z,2.20
2023-11-15T12:24:11.225Z,2.47
2023-11-15T12:26:44.392Z,2.58
2023-11-15T12:29:21.340Z,2.13
2023-11-15T12:31:51.329Z,2.47
2023-11-15T12:34:21.106Z,2.28
2023-11-15T12:36:52.378Z,2.55
2023-11-15T12:39:23.291Z,2.42
2023-11-15T12:41:53.828Z,2.22
2023-11-15T12:44:23.062Z,2.47
2023-11-15T12:46:59.568Z,2.35
2023-11-15T12:49:29.628Z,2.50
2023-11-15T12:51:59.962Z,2.13
2023-11-15T12:54:28.636Z,2.55
2023-11-15T12:57:08.932Z,2.33
2023-11-15T12:59:39.033Z,2.42
2023-11-15T13:02:08.142Z,2.42
2023-11-15T13:04:47.215Z,2.50
2023-11-15T13:07:17.781Z,2.05
2023-11-15T13:09:46.812Z,1.98
2023-11-15T13:12:24.554Z,2.35
2023-11-15T13:14:53.545Z,2.22
2023-11-15T13:17:22.275Z,2.28
2023-11-15T13:19:51.728Z,2.50
2023-11-15T13:22:22.058Z,2.53
2023-11-15T13:24:51.177Z,2.33
2023-11-15T13:27:21.736Z,2.25
2023-11-15T13:29:52.060Z,2.30
2023-11-15T13:32:21.381Z,2.53
2023-11-15T13:34:52.103Z,2.35
2023-11-15T13:37:22.529Z,2.50
2023-11-15T13:39:51.359Z,2.22
2023-11-15T13:42:20.282Z,2.67
2023-11-15T13:44:49.380Z,2.38
2023-11-15T13:47:18.539Z,2.67
2023-11-15T13:49:48.379Z,3.05
2023-11-15T13:52:17.873Z,2.88
2023-11-15T13:54:48.229Z,2.42
2023-11-15T13:57:18.704Z,2.65
2023-11-15T13:59:48.202Z,2.60
2023-11-15T14:02:17.071Z,2.55
2023-11-15T14:04:45.759Z,2.75
2023-11-15T14:07:14.477Z,2.53
2023-11-15T14:09:43.301Z,2.80
2023-11-15T14:12:13.775Z,2.95
2023-11-15T14:14:44.164Z,3.25
2023-11-15T14:17:13.057Z,2.40
2023-11-15T14:19:42.028Z,2.63
2023-11-15T14:22:13.356Z,3.05
2023-11-15T14:24:42.329Z,2.83
2023-11-15T14:27:13.083Z,2.53
2023-11-15T14:29:43.466Z,2.15
2023-11-15T14:32:17.281Z,2.50
2023-11-15T14:34:47.059Z,2.22
2023-11-15T14:37:16.229Z,2.20
2023-11-15T14:39:44.928Z,2.67
2023-11-15T14:42:13.712Z,1.90
2023-11-15T14:44:43.857Z,2.30
2023-11-15T14:47:12.518Z,2.22
2023-11-15T14:49:42.060Z,2.35
2023-11-15T14:52:13.939Z,2.00
2023-11-15T14:54:43.905Z,2.40
2023-11-15T14:57:13.171Z,2.45
2023-11-15T14:59:43.717Z,2.60
2023-11-15T15:02:14.639Z,2.28
2023-11-15T15:04:46.482Z,2.33
2023-11-15T15:07:16.999Z,2.20
2023-11-15T15:09:45.772Z,2.22
2023-11-15T15:12:15.215Z,2.20
2023-11-15T15:14:44.345Z,2.03
2023-11-15T15:17:23.577Z,2.20
2023-11-15T15:19:55.257Z,1.92
2023-11-15T15:22:27.700Z,2.40
2023-11-15T15:24:57.392Z,2.58
2023-11-15T15:27:28.510Z,2.65
2023-11-15T15:29:59.375Z,2.25
2023-11-15T15:32:30.135Z,2.30
2023-11-15T15:34:59.359Z,2.58
2023-11-15T15:37:29.399Z,2.40
2023-11-15T15:39:58.486Z,2.47
2023-11-15T15:42:27.097Z,2.20
2023-11-15T15:44:56.028Z,2.33
2023-11-15T15:47:25.766Z,2.50
2023-11-15T15:49:57.399Z,2.25
2023-11-15T15:52:26.508Z,3.08
2023-11-15T15:54:55.096Z,2.30
2023-11-15T15:57:24.256Z,2.45
2023-11-15T15:59:53.551Z,2.70
2023-11-15T16:02:22.377Z,2.30
2023-11-15T16:04:51.801Z,2.42
2023-11-15T16:07:21.854Z,2.30
2023-11-15T16:09:51.538Z,2.47
2023-11-15T16:12:20.282Z,2.40
2023-11-15T16:14:51.040Z,2.10
2023-11-15T16:17:19.756Z,2.60
2023-11-15T16:19:48.573Z,2.08
2023-11-15T16:22:17.405Z,2.38
2023-11-15T16:24:48.745Z,2.80
2023-11-15T16:27:22.324Z,2.50
2023-11-15T16:29:53.500Z,3.00
2023-11-15T16:32:22.738Z,11.55
2023-11-15T16:34:52.421Z,3.13
2023-11-15T16:37:21.834Z,3.08
2023-11-15T16:39:52.212Z,2.65
2023-11-15T16:42:21.886Z,2.83
2023-11-15T16:44:51.054Z,2.33
2023-11-15T16:47:22.449Z,2.10
2023-11-15T16:49:52.991Z,2.80
2023-11-15T16:52:22.121Z,2.40
2023-11-15T16:54:55.106Z,2.20
2023-11-15T16:57:23.857Z,2.28
2023-11-15T16:59:54.594Z,3.03
2023-11-15T17:02:23.377Z,2.60
2023-11-15T17:04:52.038Z,2.63
2023-11-15T17:07:20.770Z,2.70
2023-11-15T17:09:51.964Z,2.63
2023-11-15T17:12:24.307Z,2.42
2023-11-15T17:14:53.260Z,2.78
2023-11-15T17:17:21.916Z,2.85
2023-11-15T17:19:50.564Z,2.85
2023-11-15T17:22:20.893Z,3.38
2023-11-15T17:24:53.921Z,3.58
2023-11-15T17:27:25.176Z,3.38
2023-11-15T17:29:56.034Z,3.33
2023-11-15T17:32:24.855Z,2.72
2023-11-15T17:34:54.128Z,2.72
2023-11-15T17:37:23.009Z,3.50
2023-11-15T17:39:51.622Z,2.97
2023-11-15T17:42:20.591Z,3.40
2023-11-15T17:44:50.601Z,4.38
2023-11-15T17:47:25.189Z,2.70
2023-11-15T17:49:55.935Z,4.18
2023-11-15T17:52:26.822Z,3.50
2023-11-15T17:54:56.014Z,3.00
2023-11-15T17:57:25.375Z,2.95
2023-11-15T17:59:55.464Z,3.20
2023-11-15T18:02:24.121Z,3.50
2023-11-15T18:04:55.950Z,3.95
2023-11-15T18:07:27.973Z,3.67
2023-11-15T18:09:57.339Z,3.38
2023-11-15T18:12:25.987Z,3.78
2023-11-15T18:14:56.436Z,3.67
2023-11-15T18:17:25.414Z,3.08
2023-11-15T18:19:54.100Z,3.47
2023-11-15T18:22:22.751Z,3.65
2023-11-15T18:24:51.570Z,3.13
2023-11-15T18:27:21.155Z,2.92
2023-11-15T18:29:50.115Z,2.85
2023-11-15T18:32:20.754Z,2.72
2023-11-15T18:34:49.805Z,3.20
2023-11-15T18:37:18.788Z,4.00
2023-11-15T18:39:47.463Z,3.22
2023-11-15T18:42:16.177Z,3.38
2023-11-15T18:44:44.799Z,3.10
2023-11-15T18:47:13.529Z,3.65
2023-11-15T18:49:44.794Z,3.22
2023-11-15T18:52:13.968Z,3.10
2023-11-15T18:54:42.858Z,3.33
2023-11-15T18:57:12.100Z,2.97
2023-11-15T18:59:40.749Z,3.05
2023-11-15T19:02:09.444Z,3.10
2023-11-15T19:04:38.580Z,3.33
2023-11-15T19:07:08.957Z,3.70
2023-11-15T19:09:37.910Z,3.50
2023-11-15T19:12:07.701Z,3.63
2023-11-15T19:14:38.636Z,3.67
2023-11-15T19:17:07.529Z,4.00
2023-11-15T19:19:36.905Z,3.60
2023-11-15T19:22:06.559Z,3.50
2023-11-15T19:24:36.569Z,3.70
2023-11-15T19:27:05.542Z,3.40
2023-11-15T19:29:34.665Z,3.53
2023-11-15T19:32:04.838Z,3.70
2023-11-15T19:34:33.519Z,3.80
2023-11-15T19:37:02.830Z,3.97
2023-11-15T19:39:33.778Z,3.30
2023-11-15T19:42:03.960Z,3.38
2023-11-15T19:44:32.772Z,3.40
2023-11-15T19:47:04.605Z,3.47
2023-11-15T19:49:34.950Z,3.85
2023-11-15T19:52:10.749Z,3.85
2023-11-15T19:54:39.647Z,3.60
2023-11-15T19:57:09.735Z,3.92
2023-11-15T19:59:40.379Z,3.55
2023-11-15T20:02:12.204Z,3.78
2023-11-15T20:04:41.883Z,4.00
2023-11-15T20:07:11.329Z,3.78
2023-11-15T20:09:40.387Z,4.03
2023-11-15T20:12:11.422Z,3.50
2023-11-15T20:14:40.125Z,3.92
2023-11-15T20:17:09.028Z,3.45
2023-11-15T20:19:38.865Z,4.45
2023-11-15T20:22:08.369Z,3.70
2023-11-15T20:24:37.225Z,3.60
2023-11-15T20:27:06.188Z,3.90
2023-11-15T20:29:37.003Z,3.80
2023-11-15T20:32:07.299Z,4.15
2023-11-15T20:34:36.161Z,4.28
2023-11-15T20:37:05.004Z,3.85
2023-11-15T20:39:34.711Z,3.67
2023-11-15T20:42:04.031Z,3.50
2023-11-15T20:44:32.904Z,3.13
2023-11-15T20:47:04.463Z,3.70
2023-11-15T20:49:37.741Z,4.10
2023-11-15T20:52:07.609Z,4.28
2023-11-15T20:54:35.638Z,4.18
2023-11-15T20:57:05.046Z,3.80
2023-11-15T20:59:33.826Z,4.18
2023-11-15T21:02:04.494Z,3.67
2023-11-15T21:04:34.620Z,3.50
2023-11-15T21:07:03.912Z,3.75
2023-11-15T21:09:32.964Z,4.03
2023-11-15T21:12:01.770Z,3.42
2023-11-15T21:14:30.487Z,3.63
2023-11-15T21:16:59.430Z,3.80
2023-11-15T21:19:29.746Z,3.42
2023-11-15T21:21:58.577Z,3.58
2023-11-15T21:24:27.385Z,3.22
2023-11-15T21:26:58.053Z,3.25
2023-11-15T21:29:28.098Z,4.07
2023-11-15T21:31:57.273Z,3.25
2023-11-15T21:34:26.653Z,3.30
2023-11-15T21:37:03.214Z,3.38
2023-11-15T21:39:39.021Z,2.83
2023-11-15T21:42:08.178Z,3.25
2023-11-15T21:44:36.898Z,3.00
2023-11-15T21:47:05.646Z,2.83
2023-11-15T21:49:34.964Z,2.92
2023-11-15T21:52:05.539Z,3.20
2023-11-15T21:54:34.148Z,2.90
2023-11-15T21:57:03.926Z,2.88
2023-11-15T21:59:33.039Z,2.72
2023-11-15T22:02:03.527Z,2.50
2023-11-15T22:04:32.181Z,3.17
2023-11-15T22:07:04.870Z,3.55
2023-11-15T22:09:35.521Z,3.05
2023-11-15T22:12:05.031Z,2.92
2023-11-15T22:14:33.883Z,3.20
2023-11-15T22:17:02.636Z,2.53
2023-11-15T22:19:31.845Z,2.47
2023-11-15T22:22:00.439Z,2.63
2023-11-15T22:24:29.247Z,2.58
2023-11-15T22:26:59.296Z,2.50
2023-11-15T22:29:28.481Z,2.35
2023-11-15T22:31:57.080Z,2.53
2023-11-15T22:34:26.347Z,2.40
2023-11-15T22:36:55.200Z,2.83
2023-11-15T22:39:24.433Z,2.60
2023-11-15T22:41:53.257Z,2.50
2023-11-15T22:44:23.541Z,2.10
2023-11-15T22:46:52.182Z,2.75
2023-11-15T22:49:22.350Z,2.25
2023-11-15T22:51:52.373Z,2.53
2023-11-15T22:54:21.021Z,2.50
2023-11-15T22:56:49.728Z,2.08
2023-11-15T22:59:18.324Z,2.13
2023-11-15T23:01:49.627Z,2.05
2023-11-15T23:04:19.125Z,1.70
2023-11-15T23:06:48.653Z,2.15
2023-11-15T23:09:17.549Z,2.05
2023-11-15T23:11:47.380Z,2.20
2023-11-15T23:14:16.004Z,2.03
2023-11-15T23:16:45.605Z,2.10
2023-11-15T23:19:16.462Z,2.05
2023-11-15T23:21:51.587Z,2.03
2023-11-15T23:24:29.410Z,1.50
2023-11-15T23:26:59.532Z,1.90
2023-11-15T23:29:29.835Z,2.10
2023-11-15T23:32:00.978Z,1.70
2023-11-15T23:34:31.144Z,2.00
2023-11-15T23:37:00.777Z,1.75
2023-11-15T23:39:29.761Z,1.67
2023-11-15T23:41:58.413Z,1.65
2023-11-15T23:44:28.412Z,1.90
2023-11-15T23:46:58.185Z,1.65
2023-11-15T23:49:27.302Z,1.90
2023-11-15T23:51:57.553Z,1.83
2023-11-15T23:54:26.255Z,2.03
2023-11-15T23:56:56.229Z,2.00
2023-11-15T23:59:24.943Z,1.92
